Time;durP1;ratioP1;P1;durP2;ratioP2;P2;SDS_P1;SDS_P2;PMS_P1;PMS_P2;Temp;Humidity;BMP_temperature;BMP_pressure;BME280_temperature;BME280_humidity;BME280_pressure;Samples;Min_cycle;Max_cycle;Signal;HPM_P1;HPM_P2
2021/03/05 00:00:12;;;;;;;17.08;3.25;;;3.70;99.90;;;;;;5066354;28;20509;-69
2021/03/05 00:02:38;;;;;;;17.75;3.20;;;3.70;99.90;;;;;;5068057;28;20016;-71
2021/03/05 00:05:05;;;;;;;18.00;3.50;;;3.70;99.90;;;;;;5067939;28;20036;-72
2021/03/05 00:07:32;;;;;;;16.95;4.15;;;3.60;99.90;;;;;;5062133;28;20086;-71
2021/03/05 00:09:59;;;;;;;25.10;4.90;;;3.60;99.90;;;;;;5068313;28;20097;-68
2021/03/05 00:12:25;;;;;;;18.67;4.35;;;3.60;99.90;;;;;;5068230;28;20504;-71
2021/03/05 00:14:51;;;;;;;18.08;4.93;;;3.70;99.90;;;;;;5065946;28;20381;-72
2021/03/05 00:17:17;;;;;;;12.55;5.22;;;3.70;99.90;;;;;;5033982;28;20028;-72
2021/03/05 00:19:42;;;;;;;17.33;5.85;;;3.70;99.90;;;;;;5067218;28;20052;-71
2021/03/05 00:22:08;;;;;;;22.58;6.18;;;3.70;99.90;;;;;;5068598;28;20050;-69
2021/03/05 00:24:34;;;;;;;20.70;5.70;;;3.70;99.90;;;;;;5050578;28;20024;-69
2021/03/05 00:27:02;;;;;;;15.65;5.60;;;3.80;99.90;;;;;;5050471;28;20036;-70
2021/03/05 00:29:28;;;;;;;15.35;6.35;;;3.80;99.90;;;;;;5067603;28;20515;-73
2021/03/05 00:31:55;;;;;;;15.68;7.05;;;3.90;99.90;;;;;;5067585;28;20044;-72
2021/03/05 00:34:21;;;;;;;14.52;6.38;;;3.90;99.90;;;;;;5067872;28;20016;-70
2021/03/05 00:36:47;;;;;;;10.90;5.85;;;3.90;99.90;;;;;;5068416;28;20025;-70
2021/03/05 00:39:13;;;;;;;13.82;6.78;;;3.90;99.90;;;;;;5081359;28;20036;-72
2021/03/05 00:41:38;;;;;;;15.02;6.93;;;3.90;99.90;;;;;;5082223;28;20720;-73
2021/03/05 00:44:06;;;;;;;14.18;7.22;;;3.90;99.90;;;;;;5086935;28;20020;-74
2021/03/05 00:46:33;;;;;;;17.98;7.68;;;4.00;99.90;;;;;;5058545;28;20037;-71
2021/03/05 00:48:59;;;;;;;15.68;6.25;;;3.90;99.90;;;;;;5084129;28;20048;-70
2021/03/05 00:51:25;;;;;;;15.80;7.50;;;3.90;99.90;;;;;;5069449;28;20047;-71
2021/03/05 00:53:51;;;;;;;17.08;7.18;;;3.90;99.90;;;;;;5064361;28;20479;-73
2021/03/05 00:56:16;;;;;;;15.30;6.93;;;3.90;99.90;;;;;;5069462;28;20029;-69
2021/03/05 00:58:42;;;;;;;15.93;7.63;;;3.90;99.90;;;;;;5074213;28;20024;-72
2021/03/05 01:01:07;;;;;;;16.05;7.38;;;4.00;99.90;;;;;;5072020;28;20033;-70
2021/03/05 01:03:33;;;;;;;17.13;7.53;;;3.90;99.90;;;;;;5063683;28;20033;-70
2021/03/05 01:05:59;;;;;;;15.75;7.65;;;3.90;99.90;;;;;;5089548;28;20037;-71
2021/03/05 01:08:24;;;;;;;19.23;8.65;;;3.80;99.90;;;;;;5084236;28;20040;-71
2021/03/05 01:10:50;;;;;;;17.33;8.07;;;3.80;99.90;;;;;;5071742;28;20108;-70
2021/03/05 01:13:16;;;;;;;13.95;8.10;;;3.80;99.90;;;;;;5070313;28;20298;-69
2021/03/05 01:15:41;;;;;;;17.38;9.07;;;3.80;99.90;;;;;;5052241;28;20385;-73
2021/03/05 01:18:07;;;;;;;14.15;7.85;;;3.80;99.90;;;;;;5071739;28;20028;-72
2021/03/05 01:20:34;;;;;;;17.70;7.60;;;3.80;99.90;;;;;;5070718;28;20044;-72
2021/03/05 01:22:59;;;;;;;20.55;8.07;;;3.80;99.90;;;;;;5071449;28;20107;-70
2021/03/05 01:25:28;;;;;;;14.98;7.97;;;3.80;99.90;;;;;;5071200;28;20151;-74
2021/03/05 01:27:54;;;;;;;18.20;8.82;;;3.90;99.90;;;;;;5071107;28;20040;-73
2021/03/05 01:30:20;;;;;;;12.93;8.45;;;3.90;99.90;;;;;;5071172;28;20029;-71
2021/03/05 01:32:47;;;;;;;16.02;8.25;;;3.80;99.90;;;;;;5069164;28;20502;-71
2021/03/05 01:35:15;;;;;;;16.00;7.70;;;3.80;99.90;;;;;;5071869;28;20024;-70
2021/03/05 01:37:41;;;;;;;16.25;8.40;;;3.80;99.90;;;;;;5073427;28;20028;-71
2021/03/05 01:40:11;;;;;;;13.57;7.53;;;3.80;99.90;;;;;;5071515;28;20032;-74
2021/03/05 01:42:37;;;;;;;12.80;7.55;;;3.70;99.90;;;;;;5053029;28;20039;-71
2021/03/05 01:45:06;;;;;;;11.13;7.35;;;3.60;99.90;;;;;;5070612;28;20032;-70
2021/03/05 01:47:32;;;;;;;18.40;7.47;;;3.50;99.90;;;;;;5069279;28;20063;-70
2021/03/05 01:49:57;;;;;;;12.48;7.80;;;3.50;99.90;;;;;;5077756;28;20059;-68
2021/03/05 01:52:23;;;;;;;11.55;7.18;;;3.40;99.90;;;;;;5083735;28;20021;-68
2021/03/05 01:54:49;;;;;;;12.15;7.22;;;3.40;99.90;;;;;;5054226;28;20379;-70
2021/03/05 01:57:14;;;;;;;13.57;8.32;;;3.40;99.90;;;;;;5077719;28;20078;-71
2021/03/05 01:59:40;;;;;;;15.05;8.30;;;3.40;99.90;;;;;;5052097;28;20033;-70
2021/03/05 02:02:09;;;;;;;16.05;8.55;;;3.20;99.90;;;;;;5068667;28;20033;-70
2021/03/05 02:04:36;;;;;;;19.27;9.27;;;3.20;99.90;;;;;;5065296;28;20090;-72
2021/03/05 02:07:04;;;;;;;18.00;9.85;;;3.10;99.90;;;;;;5057084;28;20102;-70
2021/03/05 02:09:30;;;;;;;21.65;10.65;;;3.00;99.90;;;;;;5052129;28;20640;-70
2021/03/05 02:11:56;;;;;;;20.27;9.98;;;3.00;99.90;;;;;;5070779;28;20029;-70
2021/03/05 02:14:22;;;;;;;24.00;11.00;;;2.90;99.90;;;;;;5073904;28;20024;-69
2021/03/05 02:17:26;;;;;;;25.00;11.23;;;2.90;99.90;;;;;;5057724;28;20085;-69
2021/03/05 02:20:16;;;;;;;21.17;11.75;;;2.90;99.90;;;;;;5068428;28;20184;-72
2021/03/05 02:22:48;;;;;;;20.83;10.45;;;2.80;99.90;;;;;;5067527;28;20021;-70
2021/03/05 02:25:52;;;;;;;25.83;11.15;;;2.80;99.90;;;;;;5058582;28;20051;-71
2021/03/05 02:28:32;;;;;;;24.00;11.30;;;2.70;99.90;;;;;;5074444;28;20043;-70
2021/03/05 02:31:20;;;;;;;24.27;11.27;;;2.70;99.90;;;;;;5073147;28;20020;-72
2021/03/05 02:34:16;;;;;;;23.33;11.20;;;2.60;99.90;;;;;;5074155;28;20151;-70
2021/03/05 02:36:59;;;;;;;23.83;10.68;;;2.60;99.90;;;;;;5065571;28;20025;-73
2021/03/05 02:39:37;;;;;;;22.42;10.88;;;2.60;99.90;;;;;;5071345;28;20035;-70
2021/03/05 02:42:06;;;;;;;21.58;10.80;;;2.60;99.90;;;;;;5072105;28;20024;-70
2021/03/05 02:44:34;;;;;;;25.20;10.57;;;2.60;99.90;;;;;;5082112;28;20044;-70
2021/03/05 02:47:04;;;;;;;20.02;10.10;;;2.60;99.90;;;;;;5059796;28;20029;-69
2021/03/05 02:49:33;;;;;;;19.45;10.35;;;2.50;99.90;;;;;;5073145;28;20063;-71
2021/03/05 02:52:05;;;;;;;27.67;11.77;;;2.50;99.90;;;;;;5069271;28;20124;-71
2021/03/05 02:54:34;;;;;;;22.95;11.05;;;2.40;99.90;;;;;;5069243;28;20052;-71
2021/03/05 02:57:00;;;;;;;24.63;10.73;;;2.40;99.90;;;;;;5067850;28;20025;-73
2021/03/05 02:59:27;;;;;;;27.98;11.80;;;2.40;99.90;;;;;;5046592;28;20028;-71
2021/03/05 03:01:54;;;;;;;19.88;10.50;;;2.40;99.90;;;;;;5060192;28;20532;-70
2021/03/05 03:04:21;;;;;;;23.67;10.85;;;2.40;99.90;;;;;;5074740;28;20032;-70
2021/03/05 03:06:48;;;;;;;28.25;12.00;;;2.40;99.90;;;;;;5051197;28;20498;-70
2021/03/05 03:09:15;;;;;;;29.67;11.40;;;2.40;99.90;;;;;;5067085;28;20032;-72
2021/03/05 03:11:42;;;;;;;26.85;11.43;;;2.30;99.90;;;;;;5068891;28;20023;-71
2021/03/05 03:14:10;;;;;;;25.15;11.73;;;2.20;99.90;;;;;;5069034;28;20493;-69
2021/03/05 03:16:38;;;;;;;26.52;11.20;;;2.20;99.90;;;;;;5063691;28;20559;-69
2021/03/05 03:19:07;;;;;;;24.48;10.27;;;2.20;99.90;;;;;;5067146;28;20544;-70
2021/03/05 03:21:34;;;;;;;25.38;10.32;;;2.20;99.90;;;;;;5063265;28;20032;-70
2021/03/05 03:24:00;;;;;;;19.83;9.52;;;2.20;99.90;;;;;;5066839;28;20111;-71
2021/03/05 03:26:26;;;;;;;25.52;10.15;;;2.20;99.90;;;;;;5063945;28;20456;-70
2021/03/05 03:28:52;;;;;;;25.27;10.52;;;2.10;99.90;;;;;;5066942;28;20017;-70
2021/03/05 03:31:17;;;;;;;26.55;10.38;;;2.10;99.90;;;;;;5064221;28;20035;-70
2021/03/05 03:33:43;;;;;;;28.83;10.15;;;2.00;99.90;;;;;;5065084;28;20107;-71
2021/03/05 03:36:09;;;;;;;22.42;9.02;;;2.00;99.90;;;;;;5067651;28;20385;-70
2021/03/05 03:38:37;;;;;;;25.45;9.02;;;2.00;99.90;;;;;;5048675;28;20017;-70
2021/03/05 03:41:04;;;;;;;25.25;9.57;;;2.00;99.90;;;;;;5062931;28;20063;-68
2021/03/05 03:43:30;;;;;;;22.63;9.73;;;1.90;99.90;;;;;;5061314;28;20024;-68
2021/03/05 03:45:57;;;;;;;21.33;10.20;;;1.90;99.90;;;;;;5068763;28;20032;-70
2021/03/05 03:48:25;;;;;;;30.98;11.05;;;1.90;99.90;;;;;;5062257;28;20024;-68
2021/03/05 03:51:02;;;;;;;23.63;9.20;;;1.90;99.90;;;;;;5070555;28;20024;-69
2021/03/05 03:53:30;;;;;;;21.70;9.68;;;1.80;99.90;;;;;;5076959;28;20048;-68
2021/03/05 03:55:56;;;;;;;31.17;9.60;;;1.80;99.90;;;;;;5061679;28;20110;-70
2021/03/05 03:58:24;;;;;;;24.95;9.20;;;1.80;99.90;;;;;;5068160;28;20033;-71
2021/03/05 04:01:11;;;;;;;22.38;9.50;;;1.80;99.90;;;;;;5040343;28;20063;-71
2021/03/05 04:03:40;;;;;;;21.55;8.13;;;1.80;99.90;;;;;;5068847;28;20405;-68
2021/03/05 04:06:09;;;;;;;15.85;7.47;;;1.80;99.90;;;;;;5067549;28;20517;-69
2021/03/05 04:08:39;;;;;;;21.15;8.02;;;1.80;99.90;;;;;;5040566;28;20051;-70
2021/03/05 04:11:08;;;;;;;20.23;6.93;;;1.80;99.90;;;;;;5067794;28;20450;-68
2021/03/05 04:13:37;;;;;;;16.17;6.82;;;1.70;99.90;;;;;;5060466;28;20024;-72
2021/03/05 04:16:03;;;;;;;23.33;7.10;;;1.80;99.90;;;;;;5067681;28;20527;-68
2021/03/05 04:18:33;;;;;;;19.38;6.55;;;1.80;99.90;;;;;;5056884;28;20544;-73
2021/03/05 04:21:03;;;;;;;28.67;7.13;;;1.80;99.90;;;;;;5066413;28;20029;-71
2021/03/05 04:23:28;;;;;;;19.92;5.93;;;1.80;99.90;;;;;;5071259;28;20032;-68
2021/03/05 04:25:54;;;;;;;21.38;5.25;;;1.80;99.90;;;;;;5067541;28;20471;-69
2021/03/05 04:28:19;;;;;;;15.60;4.90;;;1.70;99.90;;;;;;5057399;28;20044;-67
2021/03/05 04:30:45;;;;;;;17.33;6.10;;;1.80;99.90;;;;;;5070162;28;20416;-69
2021/03/05 04:33:10;;;;;;;23.02;4.72;;;1.70;99.90;;;;;;5071596;28;20028;-72
2021/03/05 04:35:36;;;;;;;22.10;4.80;;;1.80;99.90;;;;;;5067407;28;20025;-69
2021/03/05 04:38:02;;;;;;;20.65;4.75;;;1.80;99.90;;;;;;5069395;28;20059;-70
2021/03/05 04:40:28;;;;;;;20.88;4.95;;;1.80;99.90;;;;;;5073727;28;20047;-69
2021/03/05 04:42:53;;;;;;;19.50;3.75;;;1.80;99.90;;;;;;5064616;28;20696;-69
2021/03/05 04:45:20;;;;;;;19.55;3.42;;;1.80;99.90;;;;;;5067712;28;20469;-71
2021/03/05 04:47:45;;;;;;;33.35;4.03;;;1.80;99.90;;;;;;5070472;28;20401;-69
2021/03/05 04:50:11;;;;;;;11.90;2.90;;;1.70;99.90;;;;;;5073321;28;20028;-67
2021/03/05 04:52:36;;;;;;;20.42;3.17;;;1.70;99.90;;;;;;5076377;28;20035;-68
2021/03/05 04:55:04;;;;;;;22.17;3.00;;;1.70;99.90;;;;;;5070871;28;20013;-70
2021/03/05 04:57:30;;;;;;;7.57;2.88;;;1.70;99.90;;;;;;5066778;28;20090;-70
2021/03/05 04:59:55;;;;;;;21.27;3.45;;;1.70;99.90;;;;;;5067657;28;20013;-70
2021/03/05 05:02:21;;;;;;;16.85;3.03;;;1.70;99.90;;;;;;5067632;28;20536;-71
2021/03/05 05:04:46;;;;;;;18.83;3.00;;;1.70;99.90;;;;;;5067457;28;20383;-70
2021/03/05 05:07:12;;;;;;;19.67;2.72;;;1.70;99.90;;;;;;5067145;28;20373;-69
2021/03/05 05:09:38;;;;;;;23.25;2.85;;;1.70;99.90;;;;;;5067382;28;20056;-68
2021/03/05 05:12:04;;;;;;;14.93;2.83;;;1.60;99.90;;;;;;5066703;28;20047;-71
2021/03/05 05:14:29;;;;;;;12.52;2.65;;;1.60;99.90;;;;;;5054791;28;20025;-71
2021/03/05 05:16:56;;;;;;;15.85;4.15;;;1.60;99.90;;;;;;5055666;28;20476;-72
2021/03/05 05:19:22;;;;;;;19.60;3.28;;;1.60;99.90;;;;;;5066492;28;20377;-69
2021/03/05 05:21:47;;;;;;;11.38;2.70;;;1.60;99.90;;;;;;5061557;28;20016;-72
2021/03/05 05:24:13;;;;;;;21.88;3.75;;;1.60;99.90;;;;;;5065454;28;20041;-68
2021/03/05 05:26:38;;;;;;;17.08;1.98;;;1.60;99.90;;;;;;5059363;28;20091;-70
2021/03/05 05:29:04;;;;;;;13.45;2.17;;;1.60;99.90;;;;;;5045371;28;20519;-72
2021/03/05 05:31:29;;;;;;;21.38;2.45;;;1.60;99.90;;;;;;5046545;28;20048;-70
2021/03/05 05:33:55;;;;;;;15.88;2.33;;;1.60;99.90;;;;;;5064533;28;20545;-71
2021/03/05 05:36:21;;;;;;;24.48;2.85;;;1.60;99.90;;;;;;5069183;28;20096;-70
2021/03/05 05:38:46;;;;;;;18.20;2.65;;;1.60;99.90;;;;;;5072494;28;20441;-72
2021/03/05 05:41:14;;;;;;;16.50;2.60;;;1.60;99.90;;;;;;5076585;28;20062;-71
2021/03/05 05:43:40;;;;;;;20.75;3.38;;;1.60;99.90;;;;;;5079592;28;20764;-70
2021/03/05 05:46:07;;;;;;;14.00;2.92;;;1.50;99.90;;;;;;5066157;28;20097;-71
2021/03/05 05:48:37;;;;;;;20.65;2.95;;;1.50;99.90;;;;;;5076439;28;20211;-71
2021/03/05 05:51:10;;;;;;;20.85;3.63;;;1.50;99.90;;;;;;5069202;28;20106;-74
2021/03/05 05:53:39;;;;;;;23.27;3.17;;;1.40;99.90;;;;;;5078673;28;20025;-71
2021/03/05 05:56:05;;;;;;;16.77;3.17;;;1.40;99.90;;;;;;5074694;28;20032;-71
2021/03/05 05:58:31;;;;;;;23.98;2.85;;;1.40;99.90;;;;;;5067945;28;20385;-72
2021/03/05 06:00:59;;;;;;;24.00;2.85;;;1.30;99.90;;;;;;5070245;28;20029;-72
2021/03/05 06:03:28;;;;;;;15.75;3.30;;;1.40;99.90;;;;;;5066996;28;20100;-70
2021/03/05 06:05:57;;;;;;;18.70;2.72;;;1.40;99.90;;;;;;5058900;28;20086;-72
2021/03/05 06:08:24;;;;;;;17.48;3.50;;;1.40;99.90;;;;;;5070207;28;20040;-70
2021/03/05 06:10:53;;;;;;;24.40;3.22;;;1.30;99.90;;;;;;5070475;28;20481;-74
2021/03/05 06:13:20;;;;;;;11.88;2.38;;;1.30;99.90;;;;;;5060551;28;20044;-73
2021/03/05 06:16:05;;;;;;;14.48;3.05;;;1.30;99.90;;;;;;5057278;28;20032;-71
2021/03/05 06:18:31;;;;;;;28.48;3.45;;;1.20;99.90;;;;;;5058271;28;20029;-72
2021/03/05 06:20:58;;;;;;;14.45;2.72;;;1.20;99.90;;;;;;5060151;28;20276;-73
2021/03/05 06:23:24;;;;;;;12.85;3.40;;;1.20;99.90;;;;;;5062015;28;20108;-76
2021/03/05 06:25:57;;;;;;;19.83;2.72;;;1.20;99.90;;;;;;5062069;28;20025;-71
2021/03/05 06:28:23;;;;;;;19.15;3.70;;;1.30;99.90;;;;;;5070003;28;20483;-73
2021/03/05 06:30:49;;;;;;;10.52;2.75;;;1.20;99.90;;;;;;5067842;28;20073;-72
2021/03/05 06:33:23;;;;;;;23.88;3.72;;;1.30;99.90;;;;;;5047374;28;20071;-71
2021/03/05 06:35:49;;;;;;;19.83;2.58;;;1.20;99.90;;;;;;5063209;28;20111;-72
2021/03/05 06:38:38;;;;;;;22.88;3.40;;;1.30;99.90;;;;;;5045471;28;20470;-74
2021/03/05 06:41:24;;;;;;;21.52;3.17;;;1.20;99.90;;;;;;5066724;28;20024;-73
2021/03/05 06:43:57;;;;;;;23.67;2.60;;;1.30;99.90;;;;;;5071075;28;20107;-69
2021/03/05 06:46:41;;;;;;;19.88;2.65;;;1.30;99.90;;;;;;5066855;28;20036;-73
2021/03/05 06:49:12;;;;;;;13.52;2.33;;;1.30;99.90;;;;;;5051726;28;20688;-70
2021/03/05 06:51:38;;;;;;;17.52;3.08;;;1.30;99.90;;;;;;5061015;28;20109;-70
2021/03/05 06:54:06;;;;;;;23.30;3.45;;;1.30;99.90;;;;;;5065202;28;20035;-75
2021/03/05 06:56:34;;;;;;;17.23;3.45;;;1.30;99.90;;;;;;5071677;28;20024;-72
2021/03/05 06:59:07;;;;;;;15.70;3.28;;;1.30;99.90;;;;;;5080114;28;20468;-72
2021/03/05 07:02:03;;;;;;;12.23;2.85;;;1.30;99.90;;;;;;5071933;28;20042;-72
2021/03/05 07:04:32;;;;;;;17.88;3.20;;;1.30;99.90;;;;;;5047061;28;20024;-75
2021/03/05 07:06:57;;;;;;;22.50;3.28;;;1.30;99.90;;;;;;5057386;28;20060;-71
2021/03/05 07:09:27;;;;;;;13.15;3.22;;;1.30;99.90;;;;;;5051092;28;20024;-72
2021/03/05 07:11:54;;;;;;;27.00;2.67;;;1.40;99.90;;;;;;5050714;28;20460;-74
2021/03/05 07:14:25;;;;;;;13.13;2.70;;;1.40;99.90;;;;;;5069958;28;20031;-72
2021/03/05 07:16:51;;;;;;;13.95;2.90;;;1.40;99.90;;;;;;5070971;28;20016;-72
2021/03/05 07:19:19;;;;;;;11.90;2.63;;;1.40;99.90;;;;;;5070257;28;20056;-72
2021/03/05 07:21:47;;;;;;;16.25;3.50;;;1.40;99.90;;;;;;5070739;28;20021;-73
2021/03/05 07:24:15;;;;;;;15.43;2.97;;;1.50;99.90;;;;;;5075387;28;20020;-75
2021/03/05 07:26:56;;;;;;;18.98;2.65;;;1.60;99.90;;;;;;5085315;28;20028;-73
2021/03/05 07:29:36;;;;;;;19.58;3.30;;;1.60;99.90;;;;;;5076317;28;20024;-77
2021/03/05 07:32:09;;;;;;;19.10;3.15;;;1.70;99.90;;;;;;5085129;28;20024;-73
2021/03/05 07:34:44;;;;;;;7.13;2.10;;;1.80;99.90;;;;;;5080096;28;20532;-71
2021/03/05 07:37:12;;;;;;;15.13;2.90;;;1.80;99.90;;;;;;5068754;28;20066;-72
2021/03/05 07:39:49;;;;;;;15.48;2.08;;;1.90;99.90;;;;;;5077905;28;20031;-72
2021/03/05 07:42:16;;;;;;;14.73;2.70;;;1.90;99.90;;;;;;5085899;28;20112;-74
2021/03/05 07:44:42;;;;;;;9.35;2.17;;;1.90;99.90;;;;;;5069916;28;20036;-72
2021/03/05 07:47:13;;;;;;;10.57;2.55;;;1.90;99.90;;;;;;5070964;28;20036;-71
2021/03/05 07:49:39;;;;;;;13.25;2.40;;;2.00;99.90;;;;;;5085536;28;20443;-71
2021/03/05 07:52:06;;;;;;;7.80;1.98;;;2.00;99.90;;;;;;5087105;28;20115;-72
2021/03/05 07:54:40;;;;;;;10.25;1.80;;;2.10;99.90;;;;;;5069610;28;20021;-72
2021/03/05 07:57:07;;;;;;;12.30;2.25;;;2.20;99.90;;;;;;5070111;28;20381;-71
2021/03/05 07:59:42;;;;;;;14.18;2.60;;;2.20;99.90;;;;;;5083094;28;20035;-74
2021/03/05 08:02:08;;;;;;;8.70;2.22;;;2.20;99.90;;;;;;5082120;28;20233;-72
2021/03/05 08:04:49;;;;;;;14.68;2.20;;;2.20;99.90;;;;;;5051507;28;20104;-74
2021/03/05 08:07:19;;;;;;;9.40;2.15;;;2.30;99.90;;;;;;5069702;28;20159;-72
2021/03/05 08:09:45;;;;;;;12.80;3.67;;;2.30;99.90;;;;;;5056418;28;20097;-74
2021/03/05 08:12:45;;;;;;;16.05;2.58;;;2.30;99.90;;;;;;5061588;28;20355;-73
2021/03/05 08:15:10;;;;;;;11.88;2.08;;;2.40;99.90;;;;;;5063926;28;20032;-72
2021/03/05 08:17:44;;;;;;;6.53;1.95;;;2.40;99.90;;;;;;5062435;28;20021;-70
2021/03/05 08:20:18;;;;;;;11.63;2.63;;;2.50;99.90;;;;;;5065341;28;20025;-72
2021/03/05 08:22:59;;;;;;;12.38;2.80;;;2.50;99.90;;;;;;5050500;28;20025;-75
2021/03/05 08:25:30;;;;;;;10.35;2.20;;;2.60;99.90;;;;;;5068952;28;20378;-71
2021/03/05 08:27:57;;;;;;;15.73;2.63;;;2.80;99.90;;;;;;5068828;28;20040;-71
2021/03/05 08:30:28;;;;;;;16.00;2.20;;;3.10;99.90;;;;;;5063642;28;20513;-71
2021/03/05 08:32:57;;;;;;;12.97;2.70;;;3.20;99.90;;;;;;5067342;28;20028;-71
2021/03/05 08:35:28;;;;;;;12.45;2.88;;;3.20;99.90;;;;;;5063376;28;20096;-72
2021/03/05 08:38:04;;;;;;;13.63;2.00;;;3.20;99.90;;;;;;5066867;28;20473;-73
2021/03/05 08:40:37;;;;;;;11.90;2.33;;;3.30;99.90;;;;;;5070861;28;20021;-75
2021/03/05 08:43:19;;;;;;;7.80;2.08;;;3.30;99.90;;;;;;5058422;28;20426;-72
2021/03/05 08:45:59;;;;;;;13.50;2.00;;;3.30;99.90;;;;;;5067692;28;20092;-74
2021/03/05 08:48:36;;;;;;;7.97;1.98;;;3.40;99.90;;;;;;5051739;28;20512;-74
2021/03/05 08:51:08;;;;;;;9.80;2.08;;;3.50;99.90;;;;;;5065174;28;20025;-72
2021/03/05 08:53:41;;;;;;;10.85;3.15;;;3.60;99.90;;;;;;5068311;28;20170;-70
2021/03/05 08:56:08;;;;;;;8.48;2.22;;;3.90;99.90;;;;;;5081199;28;20024;-72
2021/03/05 08:58:34;;;;;;;9.18;2.10;;;3.90;99.90;;;;;;5082469;28;20017;-73
2021/03/05 09:00:59;;;;;;;7.28;1.48;;;4.00;99.90;;;;;;5070161;28;20027;-72
2021/03/05 09:03:25;;;;;;;5.30;2.08;;;3.80;99.90;;;;;;5070012;28;20024;-73
2021/03/05 09:05:51;;;;;;;4.90;1.80;;;3.90;99.90;;;;;;5069357;28;20115;-73
2021/03/05 09:08:22;;;;;;;5.50;1.88;;;4.10;99.90;;;;;;5066210;28;20033;-75
2021/03/05 09:10:57;;;;;;;4.15;1.30;;;4.10;99.90;;;;;;5074073;28;20036;-73
2021/03/05 09:13:34;;;;;;;6.80;1.75;;;4.30;99.90;;;;;;5071695;28;20129;-71
2021/03/05 09:16:03;;;;;;;13.38;1.90;;;4.50;99.90;;;;;;5070430;28;20118;-74
2021/03/05 09:18:32;;;;;;;4.20;1.40;;;4.30;99.90;;;;;;5078169;28;20173;-72
2021/03/05 09:21:01;;;;;;;9.93;1.80;;;4.40;99.90;;;;;;5073597;28;20359;-71
2021/03/05 09:23:36;;;;;;;3.47;1.55;;;4.60;99.90;;;;;;5070822;28;20453;-73
2021/03/05 09:26:15;;;;;;;6.88;1.67;;;4.40;99.90;;;;;;5058493;28;20032;-71
2021/03/05 09:28:45;;;;;;;6.65;1.77;;;4.70;99.90;;;;;;5082721;28;20036;-71
2021/03/05 09:31:15;;;;;;;13.20;2.22;;;4.60;99.90;;;;;;5060979;28;20444;-71
2021/03/05 09:33:43;;;;;;;8.38;2.13;;;5.10;99.90;;;;;;5065050;28;20035;-71
2021/03/05 09:36:20;;;;;;;5.93;1.40;;;5.10;99.90;;;;;;5060643;28;20021;-71
2021/03/05 09:39:03;;;;;;;5.07;1.33;;;5.00;96.50;;;;;;5073798;28;20236;-74
2021/03/05 09:41:33;;;;;;;5.30;1.20;;;4.90;94.50;;;;;;5064735;28;20108;-72
2021/03/05 09:44:07;;;;;;;6.80;1.40;;;4.90;92.90;;;;;;5077350;28;20111;-70
2021/03/05 09:46:37;;;;;;;3.72;1.00;;;4.80;91.30;;;;;;5058938;28;20028;-71
2021/03/05 09:49:23;;;;;;;6.97;1.25;;;5.00;91.90;;;;;;5067310;28;20020;-72
2021/03/05 09:51:48;;;;;;;7.25;1.30;;;5.20;92.00;;;;;;5067106;28;20107;-71
2021/03/05 09:54:14;;;;;;;4.25;1.15;;;5.30;91.40;;;;;;5078112;28;20107;-68
2021/03/05 09:56:49;;;;;;;3.58;0.98;;;5.10;90.00;;;;;;5076993;28;20020;-70
2021/03/05 09:59:15;;;;;;;5.60;1.30;;;5.20;90.10;;;;;;5061345;28;20525;-72
2021/03/05 10:01:42;;;;;;;5.43;1.35;;;5.30;90.40;;;;;;5072036;28;20052;-70
2021/03/05 10:04:10;;;;;;;2.30;1.10;;;5.20;89.40;;;;;;5071304;28;20024;-73
2021/03/05 10:06:35;;;;;;;4.45;1.33;;;5.20;89.40;;;;;;5063667;28;20555;-70
2021/03/05 10:09:12;;;;;;;4.28;1.10;;;5.30;89.10;;;;;;5084699;28;20052;-72
2021/03/05 10:11:39;;;;;;;2.47;0.95;;;5.30;88.80;;;;;;5081051;28;20029;-70
2021/03/05 10:14:06;;;;;;;4.90;1.25;;;5.30;88.30;;;;;;5087622;28;20487;-70
2021/03/05 10:16:39;;;;;;;6.97;1.38;;;5.60;85.70;;;;;;5071797;28;20465;-71
2021/03/05 10:19:09;;;;;;;4.28;1.05;;;5.70;84.00;;;;;;5087515;28;20027;-70
2021/03/05 10:21:48;;;;;;;5.78;1.08;;;5.60;85.40;;;;;;5073318;28;20028;-70
2021/03/05 10:24:19;;;;;;;4.32;1.00;;;5.70;84.00;;;;;;5063719;28;20496;-71
2021/03/05 10:27:14;;;;;;;0.80;0.40;;;5.80;80.00;;;;;;5071364;28;20029;-69
2021/03/05 10:29:49;;;;;;;1.90;0.70;;;6.00;80.20;;;;;;5072119;28;20040;-71
2021/03/05 10:32:33;;;;;;;4.00;0.85;;;5.70;78.00;;;;;;5071995;28;20090;-69
2021/03/05 10:35:10;;;;;;;1.55;0.40;;;5.50;77.50;;;;;;5072984;28;20043;-70
2021/03/05 10:37:36;;;;;;;4.55;0.80;;;5.60;75.80;;;;;;5071989;28;20034;-70
2021/03/05 10:40:04;;;;;;;5.57;0.65;;;5.80;76.20;;;;;;5071895;28;20083;-71
2021/03/05 10:42:30;;;;;;;4.28;0.63;;;6.00;73.80;;;;;;5061897;28;20063;-68
2021/03/05 10:44:56;;;;;;;0.65;0.40;;;6.00;70.70;;;;;;5071587;28;20044;-69
2021/03/05 10:47:23;;;;;;;3.53;0.40;;;6.00;69.80;;;;;;5081075;28;20032;-72
2021/03/05 10:49:49;;;;;;;0.35;0.30;;;5.80;69.50;;;;;;5076969;28;20033;-72
2021/03/05 10:52:17;;;;;;;2.30;0.47;;;5.80;69.40;;;;;;5064812;28;20104;-71
2021/03/05 10:54:44;;;;;;;2.75;0.50;;;5.90;70.10;;;;;;5067547;28;20019;-70
2021/03/05 10:57:12;;;;;;;2.42;0.40;;;6.00;70.70;;;;;;5062405;28;20537;-68
2021/03/05 10:59:38;;;;;;;3.60;0.68;;;6.10;70.60;;;;;;5074042;28;20047;-72
2021/03/05 11:02:04;;;;;;;3.70;0.95;;;6.20;69.40;;;;;;5073816;28;20051;-70
2021/03/05 11:04:29;;;;;;;2.13;0.50;;;6.40;68.70;;;;;;5071708;28;20044;-72
2021/03/05 11:06:55;;;;;;;2.72;0.43;;;6.10;67.70;;;;;;5066708;28;20436;-70
2021/03/05 11:09:25;;;;;;;4.13;0.75;;;6.10;69.10;;;;;;5084506;28;20480;-74
2021/03/05 11:11:50;;;;;;;2.00;0.50;;;6.20;67.20;;;;;;5080774;28;20081;-74
2021/03/05 11:14:18;;;;;;;1.33;0.43;;;6.50;68.00;;;;;;5077487;28;20058;-73
2021/03/05 11:16:44;;;;;;;1.83;0.50;;;6.40;67.20;;;;;;5054392;28;20091;-74
2021/03/05 11:19:10;;;;;;;2.22;0.43;;;6.60;68.10;;;;;;5078256;28;20023;-73
2021/03/05 11:21:36;;;;;;;2.38;0.63;;;6.40;68.70;;;;;;5082846;28;20389;-70
2021/03/05 11:24:02;;;;;;;6.57;0.95;;;6.60;67.90;;;;;;5057888;28;20032;-71
2021/03/05 11:26:28;;;;;;;1.23;0.43;;;6.50;68.30;;;;;;5080562;28;20220;-73
2021/03/05 11:28:54;;;;;;;3.15;0.40;;;6.70;68.30;;;;;;5082820;28;20039;-76
2021/03/05 11:31:20;;;;;;;4.57;0.63;;;6.70;68.20;;;;;;5077044;28;20020;-73
2021/03/05 11:33:46;;;;;;;0.50;0.20;;;6.60;67.30;;;;;;5077961;28;20543;-69
2021/03/05 11:36:13;;;;;;;1.80;0.40;;;7.10;67.90;;;;;;5069078;28;20020;-74
2021/03/05 11:38:40;;;;;;;0.63;0.30;;;7.00;67.00;;;;;;5061436;28;20032;-71
2021/03/05 11:41:06;;;;;;;4.00;0.55;;;6.90;66.10;;;;;;5070253;28;20021;-72
2021/03/05 11:43:32;;;;;;;0.73;0.45;;;6.90;67.70;;;;;;5070384;28;20036;-71
2021/03/05 11:45:58;;;;;;;2.58;0.40;;;7.20;66.70;;;;;;5070722;28;20021;-70
2021/03/05 11:48:24;;;;;;;1.05;0.55;;;7.10;64.20;;;;;;5069924;28;20463;-67
2021/03/05 11:50:49;;;;;;;3.83;0.40;;;7.30;66.80;;;;;;5070133;28;20035;-72
2021/03/05 11:53:16;;;;;;;5.80;0.60;;;7.40;65.60;;;;;;5069076;28;20078;-72
2021/03/05 11:55:42;;;;;;;3.75;0.98;;;7.30;64.70;;;;;;5044106;28;20052;-70
2021/03/05 11:58:07;;;;;;;4.97;0.80;;;7.50;66.40;;;;;;5054345;28;20637;-71
2021/03/05 12:00:33;;;;;;;3.15;0.70;;;7.40;65.50;;;;;;5052510;28;20055;-71
2021/03/05 12:02:59;;;;;;;3.15;0.65;;;7.80;64.00;;;;;;5058146;28;20033;-70
2021/03/05 12:05:26;;;;;;;3.92;0.38;;;7.70;64.90;;;;;;5081295;28;20047;-71
2021/03/05 12:07:52;;;;;;;2.95;0.80;;;7.70;63.70;;;;;;5067722;28;20029;-70
2021/03/05 12:10:18;;;;;;;1.85;0.40;;;7.60;63.10;;;;;;5065323;28;20027;-72
2021/03/05 12:12:43;;;;;;;3.72;0.60;;;7.40;64.10;;;;;;5068051;28;20059;-71
2021/03/05 12:15:09;;;;;;;1.77;0.68;;;8.20;63.30;;;;;;5075148;28;20509;-67
2021/03/05 12:17:35;;;;;;;2.60;0.40;;;7.50;62.70;;;;;;5069507;28;20409;-72
2021/03/05 12:20:01;;;;;;;6.15;0.70;;;7.80;62.30;;;;;;5065774;28;20020;-74
2021/03/05 12:22:26;;;;;;;1.98;0.68;;;8.10;60.30;;;;;;5063429;28;20028;-69
2021/03/05 12:24:52;;;;;;;1.35;0.45;;;7.80;62.90;;;;;;5066102;28;20013;-70
2021/03/05 12:27:18;;;;;;;1.52;0.40;;;8.20;63.80;;;;;;5081838;28;20024;-71
2021/03/05 12:29:43;;;;;;;4.38;0.70;;;8.30;64.20;;;;;;5080966;28;20012;-72
2021/03/05 12:32:09;;;;;;;1.13;0.40;;;8.20;64.00;;;;;;5059103;28;20050;-69
2021/03/05 12:34:34;;;;;;;0.75;0.50;;;8.40;64.30;;;;;;5077640;28;20069;-69
2021/03/05 12:37:01;;;;;;;2.60;0.90;;;8.40;63.90;;;;;;5079037;28;20042;-69
2021/03/05 12:39:27;;;;;;;1.20;0.60;;;8.10;64.10;;;;;;5074211;28;20050;-72
2021/03/05 12:41:53;;;;;;;6.25;0.98;;;8.10;64.60;;;;;;5069484;28;20400;-68
2021/03/05 12:44:18;;;;;;;6.80;0.98;;;7.70;66.20;;;;;;5069391;28;20032;-73
2021/03/05 12:46:44;;;;;;;3.65;0.57;;;7.40;65.50;;;;;;5086464;28;20099;-72
2021/03/05 12:49:10;;;;;;;3.00;0.55;;;7.70;65.60;;;;;;5088887;28;20035;-71
2021/03/05 12:51:35;;;;;;;4.50;0.68;;;8.20;65.80;;;;;;5073853;28;20023;-69
2021/03/05 12:54:01;;;;;;;2.58;0.70;;;8.90;64.80;;;;;;5088854;28;20085;-68
2021/03/05 12:56:26;;;;;;;0.38;0.30;;;8.50;64.60;;;;;;5065616;28;20013;-69